Meteorology Quiz
An additional quiz to help review the Meteorology unit. You will have 20 min to complete this quiz. Good Luck!
Which of the following is not a division of the atmosphere? *
1 point
Winds are caused by: *
1 point
The type of cloud that should definitely be avoided during flight is: *
1 point
Areas of low pressure are called: *
1 point
The ICAO Standard Atmosphere lapse rate is: *
1 point
An air mass is a large section of the troposphere which has: *
1 point
Radiation fog forms as result of: *
1 point
Given the following METAR, what does CYYZ represent (in general)? METAR CYYZ 302100Z 05010G15KT 15SM OVC018 M05/M12 A3037 RMK SC8 SLP296= *
1 point
Given the same METAR, what is the temperature? METAR CYYZ 302100Z 05010G15KT 15SM OVC018 M05/M12 A3037 RMK SC8 SLP296= *
1 point
Given the same METAR, what is the altimeter setting? METAR CYYZ 302100Z 05010G15KT 15SM OVC018 M05/M12 A3037 RMK SC8 SLP296= *
1 point
Submit
This content is neither created nor endorsed by Google. Report Abuse - Terms of Service